Saint Louis, MO (63119)

6:59 PM CST on February 21, 2018 (GMT -0600)
Webster Groves | | Change Station
Active Advisory: Winter Weather Advisory

Elev 518 ft 38.60 °N, 90.35 °W | Updated 9 seconds ago

Overcast
Overcast
30.4 °F
Feels Like 30 °F
N
1.1
Wind Variable Wind from East
Gusts 1.1 mph

Today
High -- | Low -- °F
--% Chance of Precip.
Yesterday
High -- | Low -- °F
Precip. -- in
Pressure 30.55 in
Visibility 2.5 miles
Clouds Overcast 600 ft
Windchill 30 °F
Dew Point 30 °F
Humidity 97%
Rainfall 0.36 in
Snow Depth Not available.
6:44 AM 5:45 PM
Waxing Crescent, 36% visible
METAR KCPS 220053Z 36009KT 2 1/2SM -FZRA BR OVC006 00/M01 A3054 RMK AO2 UPB27E45FZRAE01B45SNB01E27 SLP344 P0000 I1001 T00001011 $
Pressure 30.55 in
Visibility 2.5 miles
Clouds Overcast 600 ft
Windchill 30 °F
Dew Point 30 °F
Humidity 97%
Rainfall 0.36 in
Snow Depth Not available.
6:44 AM 5:45 PM
Waxing Crescent, 36% visible
METAR KCPS 220053Z 36009KT 2 1/2SM -FZRA BR OVC006 00/M01 A3054 RMK AO2 UPB27E45FZRAE01B45SNB01E27 SLP344 P0000 I1001 T00001011 $

Get Your Daily Forecast Email!

Thanks for signing up!

Be on the lookout for a verification email in your inbox.

You'll start receiving severe weather alerts in your inbox..

×

10-Day Weather Forecast

Almanac

Astronomy

Feb. 21, 2018 Rise Set
Actual Time
Civil Twilight
Nautical Twilight
Astronomical Twilight
Moon
Length of Visible Light
Length of Day
Tomorrow will be .
, % of the Moon is Illuminated

Today's Extremes

State Highs State Lows

Community

WunderPhotos

Category 6

Welcome to Category 6. This is the collective home for Weather Underground's featured writeups by Dr. Jeff Masters (right), Bob Henson (left), Chris Burt, and other regular contributors.

Nearby

Air Quality

  Air Quality AQ Index Pollutant
Not available.

Snow Depth

Station Depth Elevation

Earthquake Activity

City Distance Mag. Time & Date
Minimum magnitude displayed is 2.5.

Coastal Water Temperatures

Place Temperature

Stations

Nearby Weather Stations

Station Location Temp. Windchill Dew Point Humidity Wind Precip. Elev Updated Type
                   

Watches & Warnings

Winter Weather Advisory
Issued: 3:38 PM CST Feb. 21, 2018 – National Weather Service

... Winter Weather Advisory remains in effect until noon CST
Thursday...

* what... freezing rain expected. Total ice accumulations of up
to one tenth of an inch are expected.

* Where... portions of central and east central Missouri and
southwest Illinois.

* When... until noon CST Thursday.

* Additional details... the ice will result in difficult travel
conditions, including during the morning commute on Thursday.

Precautionary/preparedness actions...

A Winter Weather Advisory means that periods of freezing rain or
freezing drizzle will cause travel difficulties. Be prepared for
slippery roads. Slow down and use caution while driving. In
Illinois, call 1-800-452-4368 for Road information. In Missouri,
call 1-888-275-6636 for Road information.